Terminal Aerodrome Forecast
Issued by NWS

Home | Current Version | Previous Version | Graphics & Text | Print | Product List | Glossary On
Versions: 1 2 3 4 5 6 7 8 9 10 11 12 13 14 15 16
060
FTUS43 KMPX 211720
TAFRWF
TAF
KRWF 211720Z 2118/2218 14006KT P6SM BKN090
     FM220800 14005KT 6SM BR SCT090 BKN200
     FM221400 14007KT P6SM FEW100 BKN200=

USA.gov is the U.S. government's official web portal to all federal, state and local government web resources and services.